sensor_id;sensor_type;location;lat;lon;timestamp;temperature;humidity
20732;DHT22;10527;52.124;5.196;2023-07-30T00:02:23;17.70;99.90
20732;DHT22;10527;52.124;5.196;2023-07-30T00:04:50;17.70;99.90
20732;DHT22;10527;52.124;5.196;2023-07-30T00:07:17;17.60;99.90
20732;DHT22;10527;52.124;5.196;2023-07-30T00:09:43;17.60;99.90
20732;DHT22;10527;52.124;5.196;2023-07-30T00:12:10;17.60;99.90
20732;DHT22;10527;52.124;5.196;2023-07-30T00:14:37;17.60;99.90
20732;DHT22;10527;52.124;5.196;2023-07-30T00:17:04;17.50;99.90
20732;DHT22;10527;52.124;5.196;2023-07-30T00:19:31;17.50;99.90
20732;DHT22;10527;52.124;5.196;2023-07-30T00:21:58;17.50;99.90
20732;DHT22;10527;52.124;5.196;2023-07-30T00:24:25;17.50;99.90
20732;DHT22;10527;52.124;5.196;2023-07-30T00:26:52;17.50;99.90
20732;DHT22;10527;52.124;5.196;2023-07-30T00:29:19;17.50;99.90
20732;DHT22;10527;52.124;5.196;2023-07-30T00:31:46;17.50;99.90
20732;DHT22;10527;52.124;5.196;2023-07-30T00:34:13;17.40;99.90
20732;DHT22;10527;52.124;5.196;2023-07-30T00:36:40;17.40;99.90
20732;DHT22;10527;52.124;5.196;2023-07-30T00:39:07;17.30;99.90
20732;DHT22;10527;52.124;5.196;2023-07-30T00:41:36;17.40;99.90
20732;DHT22;10527;52.124;5.196;2023-07-30T00:44:04;17.40;99.90
20732;DHT22;10527;52.124;5.196;2023-07-30T00:46:31;17.30;99.90
20732;DHT22;10527;52.124;5.196;2023-07-30T00:48:58;17.40;99.90
20732;DHT22;10527;52.124;5.196;2023-07-30T00:51:26;17.30;99.90
20732;DHT22;10527;52.124;5.196;2023-07-30T00:53:56;17.30;99.90
20732;DHT22;10527;52.124;5.196;2023-07-30T00:56:23;17.30;99.90
20732;DHT22;10527;52.124;5.196;2023-07-30T00:58:50;17.40;99.90
20732;DHT22;10527;52.124;5.196;2023-07-30T01:01:19;17.40;99.90
20732;DHT22;10527;52.124;5.196;2023-07-30T01:03:46;17.30;99.90
20732;DHT22;10527;52.124;5.196;2023-07-30T01:06:12;17.30;99.90
20732;DHT22;10527;52.124;5.196;2023-07-30T01:08:39;17.20;99.90
20732;DHT22;10527;52.124;5.196;2023-07-30T01:11:07;17.20;99.90
20732;DHT22;10527;52.124;5.196;2023-07-30T01:13:35;17.10;99.90
20732;DHT22;10527;52.124;5.196;2023-07-30T01:16:02;17.10;99.90
20732;DHT22;10527;52.124;5.196;2023-07-30T01:18:30;17.10;99.90
20732;DHT22;10527;52.124;5.196;2023-07-30T01:20:58;17.10;99.90
20732;DHT22;10527;52.124;5.196;2023-07-30T01:23:26;17.20;99.90
20732;DHT22;10527;52.124;5.196;2023-07-30T01:26:03;17.10;99.90
20732;DHT22;10527;52.124;5.196;2023-07-30T01:28:37;17.10;99.90
20732;DHT22;10527;52.124;5.196;2023-07-30T01:31:14;17.00;99.90
20732;DHT22;10527;52.124;5.196;2023-07-30T01:33:43;17.00;99.90
20732;DHT22;10527;52.124;5.196;2023-07-30T01:36:15;17.00;99.90
20732;DHT22;10527;52.124;5.196;2023-07-30T01:38:43;17.10;99.90
20732;DHT22;10527;52.124;5.196;2023-07-30T01:41:10;17.00;99.90
20732;DHT22;10527;52.124;5.196;2023-07-30T01:43:37;17.00;99.90
20732;DHT22;10527;52.124;5.196;2023-07-30T01:46:04;17.10;99.90
20732;DHT22;10527;52.124;5.196;2023-07-30T01:48:31;17.10;99.90
20732;DHT22;10527;52.124;5.196;2023-07-30T01:51:00;17.10;99.90
20732;DHT22;10527;52.124;5.196;2023-07-30T01:53:27;17.10;99.90
20732;DHT22;10527;52.124;5.196;2023-07-30T01:55:54;17.00;99.90
20732;DHT22;10527;52.124;5.196;2023-07-30T01:58:21;17.10;99.90
20732;DHT22;10527;52.124;5.196;2023-07-30T02:00:47;17.00;99.90
20732;DHT22;10527;52.124;5.196;2023-07-30T02:03:14;17.00;99.90
20732;DHT22;10527;52.124;5.196;2023-07-30T02:05:41;17.00;99.90
20732;DHT22;10527;52.124;5.196;2023-07-30T02:08:08;17.00;99.90
20732;DHT22;10527;52.124;5.196;2023-07-30T02:10:36;17.10;99.90
20732;DHT22;10527;52.124;5.196;2023-07-30T02:13:02;17.00;99.90
20732;DHT22;10527;52.124;5.196;2023-07-30T02:15:29;17.10;99.90
20732;DHT22;10527;52.124;5.196;2023-07-30T02:17:56;17.00;99.90
20732;DHT22;10527;52.124;5.196;2023-07-30T02:20:23;17.00;99.90
20732;DHT22;10527;52.124;5.196;2023-07-30T02:22:50;17.00;99.90
20732;DHT22;10527;52.124;5.196;2023-07-30T02:25:17;17.00;99.90
20732;DHT22;10527;52.124;5.196;2023-07-30T02:27:44;16.90;99.90
20732;DHT22;10527;52.124;5.196;2023-07-30T02:30:11;17.00;99.90
20732;DHT22;10527;52.124;5.196;2023-07-30T02:32:38;17.00;99.90
20732;DHT22;10527;52.124;5.196;2023-07-30T02:35:05;16.90;99.90
20732;DHT22;10527;52.124;5.196;2023-07-30T02:37:34;16.90;99.90
20732;DHT22;10527;52.124;5.196;2023-07-30T02:40:01;17.00;99.90
20732;DHT22;10527;52.124;5.196;2023-07-30T02:42:31;17.00;99.90
20732;DHT22;10527;52.124;5.196;2023-07-30T02:44:58;17.10;99.90
20732;DHT22;10527;52.124;5.196;2023-07-30T02:47:24;17.00;99.90
20732;DHT22;10527;52.124;5.196;2023-07-30T02:49:54;16.80;99.90
20732;DHT22;10527;52.124;5.196;2023-07-30T02:52:21;16.80;99.90
20732;DHT22;10527;52.124;5.196;2023-07-30T02:54:48;16.80;99.90
20732;DHT22;10527;52.124;5.196;2023-07-30T02:57:15;16.80;99.90
20732;DHT22;10527;52.124;5.196;2023-07-30T02:59:41;16.70;99.90
20732;DHT22;10527;52.124;5.196;2023-07-30T03:02:08;16.70;99.90
20732;DHT22;10527;52.124;5.196;2023-07-30T03:04:35;16.70;99.90
20732;DHT22;10527;52.124;5.196;2023-07-30T03:07:02;16.80;99.90
20732;DHT22;10527;52.124;5.196;2023-07-30T03:09:29;16.70;99.90
20732;DHT22;10527;52.124;5.196;2023-07-30T03:11:56;16.70;99.90
20732;DHT22;10527;52.124;5.196;2023-07-30T03:14:23;16.70;99.90
20732;DHT22;10527;52.124;5.196;2023-07-30T03:16:50;16.80;99.90
20732;DHT22;10527;52.124;5.196;2023-07-30T03:19:17;16.70;99.90
20732;DHT22;10527;52.124;5.196;2023-07-30T03:21:44;16.70;99.90
20732;DHT22;10527;52.124;5.196;2023-07-30T03:24:10;16.70;99.90
20732;DHT22;10527;52.124;5.196;2023-07-30T03:26:37;16.70;99.90
20732;DHT22;10527;52.124;5.196;2023-07-30T03:29:04;16.70;99.90
20732;DHT22;10527;52.124;5.196;2023-07-30T03:31:31;16.70;99.90
20732;DHT22;10527;52.124;5.196;2023-07-30T03:33:58;16.60;99.90
20732;DHT22;10527;52.124;5.196;2023-07-30T03:36:25;16.60;99.90
20732;DHT22;10527;52.124;5.196;2023-07-30T03:38:52;16.60;99.90
20732;DHT22;10527;52.124;5.196;2023-07-30T03:41:19;16.60;99.90
20732;DHT22;10527;52.124;5.196;2023-07-30T03:43:45;16.60;99.90
20732;DHT22;10527;52.124;5.196;2023-07-30T03:46:12;16.50;99.90
20732;DHT22;10527;52.124;5.196;2023-07-30T03:48:39;16.60;99.90
20732;DHT22;10527;52.124;5.196;2023-07-30T03:51:07;16.60;99.90
20732;DHT22;10527;52.124;5.196;2023-07-30T03:53:34;16.60;99.90
20732;DHT22;10527;52.124;5.196;2023-07-30T03:56:03;16.60;99.90
20732;DHT22;10527;52.124;5.196;2023-07-30T03:58:30;16.60;99.90
20732;DHT22;10527;52.124;5.196;2023-07-30T04:00:57;16.70;99.90
20732;DHT22;10527;52.124;5.196;2023-07-30T04:03:24;16.70;99.90
20732;DHT22;10527;52.124;5.196;2023-07-30T04:05:51;16.70;99.90
20732;DHT22;10527;52.124;5.196;2023-07-30T04:08:19;16.60;99.90
20732;DHT22;10527;52.124;5.196;2023-07-30T04:10:46;16.70;99.90
20732;DHT22;10527;52.124;5.196;2023-07-30T04:13:13;16.70;99.90
20732;DHT22;10527;52.124;5.196;2023-07-30T04:15:40;16.70;99.90
20732;DHT22;10527;52.124;5.196;2023-07-30T04:18:07;16.70;99.90
20732;DHT22;10527;52.124;5.196;2023-07-30T04:20:34;16.60;99.90
20732;DHT22;10527;52.124;5.196;2023-07-30T04:23:00;16.60;99.90
20732;DHT22;10527;52.124;5.196;2023-07-30T04:25:27;16.60;99.90
20732;DHT22;10527;52.124;5.196;2023-07-30T04:27:54;16.60;99.90
20732;DHT22;10527;52.124;5.196;2023-07-30T04:30:21;16.60;99.90
20732;DHT22;10527;52.124;5.196;2023-07-30T04:32:48;16.70;99.90
20732;DHT22;10527;52.124;5.196;2023-07-30T04:35:15;16.60;99.90
20732;DHT22;10527;52.124;5.196;2023-07-30T04:37:42;16.70;99.90
20732;DHT22;10527;52.124;5.196;2023-07-30T04:40:09;16.70;99.90
20732;DHT22;10527;52.124;5.196;2023-07-30T04:42:36;16.70;99.90
20732;DHT22;10527;52.124;5.196;2023-07-30T04:45:03;16.70;99.90
20732;DHT22;10527;52.124;5.196;2023-07-30T04:47:31;16.70;99.90
20732;DHT22;10527;52.124;5.196;2023-07-30T04:49:57;16.70;99.90
20732;DHT22;10527;52.124;5.196;2023-07-30T04:52:24;16.80;99.90
20732;DHT22;10527;52.124;5.196;2023-07-30T04:54:51;16.70;99.90
20732;DHT22;10527;52.124;5.196;2023-07-30T04:57:18;16.80;99.90
20732;DHT22;10527;52.124;5.196;2023-07-30T04:59:45;16.80;99.90
20732;DHT22;10527;52.124;5.196;2023-07-30T05:02:11;16.80;99.90
20732;DHT22;10527;52.124;5.196;2023-07-30T05:04:38;16.80;99.90
20732;DHT22;10527;52.124;5.196;2023-07-30T05:07:05;16.80;99.90
20732;DHT22;10527;52.124;5.196;2023-07-30T05:09:34;16.90;99.90
20732;DHT22;10527;52.124;5.196;2023-07-30T05:12:01;16.90;99.90
20732;DHT22;10527;52.124;5.196;2023-07-30T05:14:28;16.90;99.90
20732;DHT22;10527;52.124;5.196;2023-07-30T05:16:55;17.00;99.90
20732;DHT22;10527;52.124;5.196;2023-07-30T05:19:22;17.00;99.90
20732;DHT22;10527;52.124;5.196;2023-07-30T05:21:48;17.00;99.90
20732;DHT22;10527;52.124;5.196;2023-07-30T05:24:15;17.10;99.90
20732;DHT22;10527;52.124;5.196;2023-07-30T05:26:42;17.10;99.90
20732;DHT22;10527;52.124;5.196;2023-07-30T05:29:09;17.20;99.90
20732;DHT22;10527;52.124;5.196;2023-07-30T05:31:36;17.10;99.90
20732;DHT22;10527;52.124;5.196;2023-07-30T05:34:03;17.20;99.90
20732;DHT22;10527;52.124;5.196;2023-07-30T05:36:31;17.20;99.90
20732;DHT22;10527;52.124;5.196;2023-07-30T05:38:58;17.10;99.90
20732;DHT22;10527;52.124;5.196;2023-07-30T05:41:25;17.20;99.90
20732;DHT22;10527;52.124;5.196;2023-07-30T05:43:51;17.30;99.90
20732;DHT22;10527;52.124;5.196;2023-07-30T05:46:18;17.30;99.90
20732;DHT22;10527;52.124;5.196;2023-07-30T05:48:45;17.30;99.90
20732;DHT22;10527;52.124;5.196;2023-07-30T05:51:12;17.30;99.90
20732;DHT22;10527;52.124;5.196;2023-07-30T05:53:39;17.40;99.90
20732;DHT22;10527;52.124;5.196;2023-07-30T05:56:06;17.40;99.90
20732;DHT22;10527;52.124;5.196;2023-07-30T05:58:33;17.40;99.90
20732;DHT22;10527;52.124;5.196;2023-07-30T06:01:02;17.40;99.90
20732;DHT22;10527;52.124;5.196;2023-07-30T06:03:29;17.40;99.90
20732;DHT22;10527;52.124;5.196;2023-07-30T06:05:56;17.50;99.90
20732;DHT22;10527;52.124;5.196;2023-07-30T06:08:23;17.50;99.90
20732;DHT22;10527;52.124;5.196;2023-07-30T06:10:49;17.50;99.90
20732;DHT22;10527;52.124;5.196;2023-07-30T06:13:16;17.50;99.90
20732;DHT22;10527;52.124;5.196;2023-07-30T06:15:43;17.50;99.90
20732;DHT22;10527;52.124;5.196;2023-07-30T06:18:10;17.70;99.90
20732;DHT22;10527;52.124;5.196;2023-07-30T06:20:37;17.60;99.90
20732;DHT22;10527;52.124;5.196;2023-07-30T06:23:04;17.70;99.90
20732;DHT22;10527;52.124;5.196;2023-07-30T06:25:31;17.70;99.90
20732;DHT22;10527;52.124;5.196;2023-07-30T06:27:59;17.80;99.90
20732;DHT22;10527;52.124;5.196;2023-07-30T06:30:26;17.90;99.90
20732;DHT22;10527;52.124;5.196;2023-07-30T06:32:53;17.80;99.90
20732;DHT22;10527;52.124;5.196;2023-07-30T06:35:20;17.80;99.90
20732;DHT22;10527;52.124;5.196;2023-07-30T06:37:47;17.80;99.90
20732;DHT22;10527;52.124;5.196;2023-07-30T06:40:14;17.80;99.90
20732;DHT22;10527;52.124;5.196;2023-07-30T06:42:41;17.90;99.90
20732;DHT22;10527;52.124;5.196;2023-07-30T06:45:08;17.90;99.90
20732;DHT22;10527;52.124;5.196;2023-07-30T06:47:35;17.80;99.90
20732;DHT22;10527;52.124;5.196;2023-07-30T06:50:03;17.90;99.90
20732;DHT22;10527;52.124;5.196;2023-07-30T06:52:31;17.90;99.90
20732;DHT22;10527;52.124;5.196;2023-07-30T06:54:58;17.70;99.90
20732;DHT22;10527;52.124;5.196;2023-07-30T06:57:25;17.80;99.90
20732;DHT22;10527;52.124;5.196;2023-07-30T06:59:53;17.80;99.90
20732;DHT22;10527;52.124;5.196;2023-07-30T07:02:21;17.70;99.90
20732;DHT22;10527;52.124;5.196;2023-07-30T07:04:49;17.70;99.90
20732;DHT22;10527;52.124;5.196;2023-07-30T07:07:17;17.70;99.90
20732;DHT22;10527;52.124;5.196;2023-07-30T07:09:43;17.80;99.90
20732;DHT22;10527;52.124;5.196;2023-07-30T07:12:10;17.70;99.90
20732;DHT22;10527;52.124;5.196;2023-07-30T07:14:37;17.70;99.90
20732;DHT22;10527;52.124;5.196;2023-07-30T07:17:05;17.90;99.90
20732;DHT22;10527;52.124;5.196;2023-07-30T07:19:34;18.00;99.90
20732;DHT22;10527;52.124;5.196;2023-07-30T07:22:05;18.00;99.90
20732;DHT22;10527;52.124;5.196;2023-07-30T07:24:32;18.00;99.90
20732;DHT22;10527;52.124;5.196;2023-07-30T07:26:59;18.10;99.90
20732;DHT22;10527;52.124;5.196;2023-07-30T07:29:26;18.10;99.90
20732;DHT22;10527;52.124;5.196;2023-07-30T07:31:53;18.20;99.90
20732;DHT22;10527;52.124;5.196;2023-07-30T07:34:20;18.20;99.90
20732;DHT22;10527;52.124;5.196;2023-07-30T07:36:48;18.30;99.90
20732;DHT22;10527;52.124;5.196;2023-07-30T07:39:15;18.30;99.90
20732;DHT22;10527;52.124;5.196;2023-07-30T07:41:44;18.40;99.90
20732;DHT22;10527;52.124;5.196;2023-07-30T07:44:10;18.40;99.90
20732;DHT22;10527;52.124;5.196;2023-07-30T07:46:37;18.50;99.90
20732;DHT22;10527;52.124;5.196;2023-07-30T07:49:04;18.50;99.90
20732;DHT22;10527;52.124;5.196;2023-07-30T07:51:32;18.50;99.90
20732;DHT22;10527;52.124;5.196;2023-07-30T07:54:02;18.50;99.90
20732;DHT22;10527;52.124;5.196;2023-07-30T07:56:30;18.60;99.90
20732;DHT22;10527;52.124;5.196;2023-07-30T07:58:58;18.50;99.90
20732;DHT22;10527;52.124;5.196;2023-07-30T08:01:25;18.70;99.90
20732;DHT22;10527;52.124;5.196;2023-07-30T08:03:52;18.70;99.90
20732;DHT22;10527;52.124;5.196;2023-07-30T08:06:18;18.70;99.90
20732;DHT22;10527;52.124;5.196;2023-07-30T08:08:45;18.60;99.90
20732;DHT22;10527;52.124;5.196;2023-07-30T08:11:12;18.50;99.90
20732;DHT22;10527;52.124;5.196;2023-07-30T08:13:50;18.50;99.90
20732;DHT22;10527;52.124;5.196;2023-07-30T08:16:17;18.40;99.90
20732;DHT22;10527;52.124;5.196;2023-07-30T08:18:44;18.30;99.90
20732;DHT22;10527;52.124;5.196;2023-07-30T08:21:11;18.30;99.90
20732;DHT22;10527;52.124;5.196;2023-07-30T08:23:37;18.40;99.90
20732;DHT22;10527;52.124;5.196;2023-07-30T08:26:04;18.40;99.90
20732;DHT22;10527;52.124;5.196;2023-07-30T08:28:31;18.30;99.90
20732;DHT22;10527;52.124;5.196;2023-07-30T08:31:01;18.30;99.90
20732;DHT22;10527;52.124;5.196;2023-07-30T08:33:31;18.30;99.90
20732;DHT22;10527;52.124;5.196;2023-07-30T08:36:17;18.30;99.90
20732;DHT22;10527;52.124;5.196;2023-07-30T08:38:48;18.50;99.90
20732;DHT22;10527;52.124;5.196;2023-07-30T08:41:15;18.60;99.90
20732;DHT22;10527;52.124;5.196;2023-07-30T08:43:42;18.70;99.90
20732;DHT22;10527;52.124;5.196;2023-07-30T08:46:16;18.80;99.90
20732;DHT22;10527;52.124;5.196;2023-07-30T08:48:43;19.00;99.90
20732;DHT22;10527;52.124;5.196;2023-07-30T08:51:13;19.40;99.90
20732;DHT22;10527;52.124;5.196;2023-07-30T08:53:41;19.40;99.90
20732;DHT22;10527;52.124;5.196;2023-07-30T08:56:09;19.20;99.90
20732;DHT22;10527;52.124;5.196;2023-07-30T08:58:37;19.10;99.90
20732;DHT22;10527;52.124;5.196;2023-07-30T09:01:08;19.10;99.90
20732;DHT22;10527;52.124;5.196;2023-07-30T09:03:39;19.10;99.90
20732;DHT22;10527;52.124;5.196;2023-07-30T09:06:07;19.10;99.90
20732;DHT22;10527;52.124;5.196;2023-07-30T09:08:34;19.20;99.90
20732;DHT22;10527;52.124;5.196;2023-07-30T09:11:11;19.20;99.90
20732;DHT22;10527;52.124;5.196;2023-07-30T09:13:41;19.20;99.90
20732;DHT22;10527;52.124;5.196;2023-07-30T09:16:09;19.20;99.90
20732;DHT22;10527;52.124;5.196;2023-07-30T09:18:55;19.30;99.90
20732;DHT22;10527;52.124;5.196;2023-07-30T09:21:33;19.00;99.90
20732;DHT22;10527;52.124;5.196;2023-07-30T09:24:02;18.90;99.90
20732;DHT22;10527;52.124;5.196;2023-07-30T09:26:44;18.70;99.90
20732;DHT22;10527;52.124;5.196;2023-07-30T09:29:14;18.60;99.90
20732;DHT22;10527;52.124;5.196;2023-07-30T09:31:52;18.70;99.90
20732;DHT22;10527;52.124;5.196;2023-07-30T09:34:24;19.30;99.90
20732;DHT22;10527;52.124;5.196;2023-07-30T09:36:53;19.30;99.90
20732;DHT22;10527;52.124;5.196;2023-07-30T09:39:21;19.20;99.90
20732;DHT22;10527;52.124;5.196;2023-07-30T09:42:00;19.20;99.90
20732;DHT22;10527;52.124;5.196;2023-07-30T09:44:27;19.20;99.90
20732;DHT22;10527;52.124;5.196;2023-07-30T09:46:54;19.80;99.90
20732;DHT22;10527;52.124;5.196;2023-07-30T09:49:21;20.10;99.90
20732;DHT22;10527;52.124;5.196;2023-07-30T09:51:51;20.40;99.90
20732;DHT22;10527;52.124;5.196;2023-07-30T09:54:19;20.70;99.90
20732;DHT22;10527;52.124;5.196;2023-07-30T09:56:45;20.90;99.90
20732;DHT22;10527;52.124;5.196;2023-07-30T09:59:12;21.10;99.90
20732;DHT22;10527;52.124;5.196;2023-07-30T10:01:47;21.00;99.90
20732;DHT22;10527;52.124;5.196;2023-07-30T10:04:20;21.00;99.90
20732;DHT22;10527;52.124;5.196;2023-07-30T10:07:08;21.10;99.90
20732;DHT22;10527;52.124;5.196;2023-07-30T10:09:40;21.30;99.90
20732;DHT22;10527;52.124;5.196;2023-07-30T10:12:13;21.20;99.90
20732;DHT22;10527;52.124;5.196;2023-07-30T10:14:43;21.00;99.90
20732;DHT22;10527;52.124;5.196;2023-07-30T10:17:12;20.50;99.90
20732;DHT22;10527;52.124;5.196;2023-07-30T10:19:39;20.50;99.90
20732;DHT22;10527;52.124;5.196;2023-07-30T10:25:03;21.10;99.90
20732;DHT22;10527;52.124;5.196;2023-07-30T10:27:44;21.20;99.90
20732;DHT22;10527;52.124;5.196;2023-07-30T10:30:17;20.80;99.90
20732;DHT22;10527;52.124;5.196;2023-07-30T10:35:45;20.40;99.90
20732;DHT22;10527;52.124;5.196;2023-07-30T10:41:06;21.00;99.90
20732;DHT22;10527;52.124;5.196;2023-07-30T10:43:43;21.10;99.90
20732;DHT22;10527;52.124;5.196;2023-07-30T10:46:15;21.30;99.90
20732;DHT22;10527;52.124;5.196;2023-07-30T10:48:46;21.50;99.90
20732;DHT22;10527;52.124;5.196;2023-07-30T10:51:18;21.50;99.90
20732;DHT22;10527;52.124;5.196;2023-07-30T10:53:48;21.90;99.90
20732;DHT22;10527;52.124;5.196;2023-07-30T10:56:18;22.00;99.90
20732;DHT22;10527;52.124;5.196;2023-07-30T10:58:52;21.90;99.90
20732;DHT22;10527;52.124;5.196;2023-07-30T11:01:20;21.50;99.90
20732;DHT22;10527;52.124;5.196;2023-07-30T11:03:50;21.40;99.90
20732;DHT22;10527;52.124;5.196;2023-07-30T11:06:26;21.10;99.90
20732;DHT22;10527;52.124;5.196;2023-07-30T11:08:53;21.00;99.90
20732;DHT22;10527;52.124;5.196;2023-07-30T11:11:20;20.90;99.90
20732;DHT22;10527;52.124;5.196;2023-07-30T11:13:51;21.10;99.90
20732;DHT22;10527;52.124;5.196;2023-07-30T11:16:18;20.90;99.90
20732;DHT22;10527;52.124;5.196;2023-07-30T11:18:45;20.80;99.90
20732;DHT22;10527;52.124;5.196;2023-07-30T11:21:16;20.50;99.90
20732;DHT22;10527;52.124;5.196;2023-07-30T11:23:45;20.50;99.90
20732;DHT22;10527;52.124;5.196;2023-07-30T11:26:18;20.40;99.90
20732;DHT22;10527;52.124;5.196;2023-07-30T11:28:46;20.30;99.90
20732;DHT22;10527;52.124;5.196;2023-07-30T11:31:18;20.50;99.90
20732;DHT22;10527;52.124;5.196;2023-07-30T11:33:48;20.70;99.90
20732;DHT22;10527;52.124;5.196;2023-07-30T11:36:19;21.20;99.90
20732;DHT22;10527;52.124;5.196;2023-07-30T11:38:49;21.10;99.90
20732;DHT22;10527;52.124;5.196;2023-07-30T11:41:19;21.10;99.90
20732;DHT22;10527;52.124;5.196;2023-07-30T11:43:48;21.30;99.90
20732;DHT22;10527;52.124;5.196;2023-07-30T11:46:16;21.40;99.90
20732;DHT22;10527;52.124;5.196;2023-07-30T11:48:47;21.80;99.90
20732;DHT22;10527;52.124;5.196;2023-07-30T11:51:20;21.50;99.90
20732;DHT22;10527;52.124;5.196;2023-07-30T11:54:18;21.70;99.90
20732;DHT22;10527;52.124;5.196;2023-07-30T11:56:55;21.90;99.90
20732;DHT22;10527;52.124;5.196;2023-07-30T11:59:22;22.30;99.90
20732;DHT22;10527;52.124;5.196;2023-07-30T12:01:49;22.20;99.90
20732;DHT22;10527;52.124;5.196;2023-07-30T12:04:17;22.50;99.90
20732;DHT22;10527;52.124;5.196;2023-07-30T12:06:48;22.20;99.90
20732;DHT22;10527;52.124;5.196;2023-07-30T12:09:25;21.70;99.90
20732;DHT22;10527;52.124;5.196;2023-07-30T12:12:00;21.40;99.90
20732;DHT22;10527;52.124;5.196;2023-07-30T12:14:42;21.50;99.90
20732;DHT22;10527;52.124;5.196;2023-07-30T12:17:10;21.80;99.90
20732;DHT22;10527;52.124;5.196;2023-07-30T12:19:37;22.00;99.90
20732;DHT22;10527;52.124;5.196;2023-07-30T12:22:04;22.30;99.90
20732;DHT22;10527;52.124;5.196;2023-07-30T12:24:31;22.40;99.90
20732;DHT22;10527;52.124;5.196;2023-07-30T12:26:59;22.50;99.90
20732;DHT22;10527;52.124;5.196;2023-07-30T12:29:27;22.30;99.90
20732;DHT22;10527;52.124;5.196;2023-07-30T12:31:54;22.30;99.90
20732;DHT22;10527;52.124;5.196;2023-07-30T12:34:23;22.30;99.90
20732;DHT22;10527;52.124;5.196;2023-07-30T12:36:50;22.20;99.90
20732;DHT22;10527;52.124;5.196;2023-07-30T12:39:17;22.10;99.90
20732;DHT22;10527;52.124;5.196;2023-07-30T12:41:44;22.30;99.90
20732;DHT22;10527;52.124;5.196;2023-07-30T12:44:11;22.30;99.90
20732;DHT22;10527;52.124;5.196;2023-07-30T12:46:38;22.70;99.90
20732;DHT22;10527;52.124;5.196;2023-07-30T12:49:06;22.80;99.90
20732;DHT22;10527;52.124;5.196;2023-07-30T12:51:33;22.90;99.90
20732;DHT22;10527;52.124;5.196;2023-07-30T12:54:00;23.00;99.90
20732;DHT22;10527;52.124;5.196;2023-07-30T12:56:27;22.80;99.90
20732;DHT22;10527;52.124;5.196;2023-07-30T12:58:54;22.60;99.90
20732;DHT22;10527;52.124;5.196;2023-07-30T13:01:21;22.30;99.90
20732;DHT22;10527;52.124;5.196;2023-07-30T13:03:50;22.20;99.90
20732;DHT22;10527;52.124;5.196;2023-07-30T13:06:18;22.10;99.90
20732;DHT22;10527;52.124;5.196;2023-07-30T13:08:47;22.10;99.90
20732;DHT22;10527;52.124;5.196;2023-07-30T13:11:14;22.60;99.90
20732;DHT22;10527;52.124;5.196;2023-07-30T13:13:41;22.90;99.90
20732;DHT22;10527;52.124;5.196;2023-07-30T13:16:08;22.60;99.90
20732;DHT22;10527;52.124;5.196;2023-07-30T13:18:35;22.30;99.90
20732;DHT22;10527;52.124;5.196;2023-07-30T13:21:02;22.00;99.90
20732;DHT22;10527;52.124;5.196;2023-07-30T13:23:29;21.70;99.90
20732;DHT22;10527;52.124;5.196;2023-07-30T13:25:57;21.80;99.90
20732;DHT22;10527;52.124;5.196;2023-07-30T13:28:24;22.30;99.90
20732;DHT22;10527;52.124;5.196;2023-07-30T13:30:51;21.90;99.90
20732;DHT22;10527;52.124;5.196;2023-07-30T13:33:19;22.00;99.90
20732;DHT22;10527;52.124;5.196;2023-07-30T13:35:46;22.10;99.90
20732;DHT22;10527;52.124;5.196;2023-07-30T13:38:13;21.90;99.90
20732;DHT22;10527;52.124;5.196;2023-07-30T13:40:40;21.90;99.90
20732;DHT22;10527;52.124;5.196;2023-07-30T13:43:07;22.20;99.90
20732;DHT22;10527;52.124;5.196;2023-07-30T13:45:33;22.20;99.90
20732;DHT22;10527;52.124;5.196;2023-07-30T13:48:00;22.20;99.90
20732;DHT22;10527;52.124;5.196;2023-07-30T13:50:27;22.10;99.90
20732;DHT22;10527;52.124;5.196;2023-07-30T13:52:54;22.00;99.90
20732;DHT22;10527;52.124;5.196;2023-07-30T13:55:21;21.80;99.90
20732;DHT22;10527;52.124;5.196;2023-07-30T13:57:48;21.80;99.90
20732;DHT22;10527;52.124;5.196;2023-07-30T14:00:15;22.00;99.90
20732;DHT22;10527;52.124;5.196;2023-07-30T14:02:43;22.10;99.90
20732;DHT22;10527;52.124;5.196;2023-07-30T14:05:10;21.90;99.90
20732;DHT22;10527;52.124;5.196;2023-07-30T14:07:37;21.80;99.90
20732;DHT22;10527;52.124;5.196;2023-07-30T14:10:04;21.90;99.90
20732;DHT22;10527;52.124;5.196;2023-07-30T14:12:32;22.10;99.90
20732;DHT22;10527;52.124;5.196;2023-07-30T14:14:58;22.10;99.90
20732;DHT22;10527;52.124;5.196;2023-07-30T14:17:25;22.20;99.90
20732;DHT22;10527;52.124;5.196;2023-07-30T14:19:52;22.60;99.90
20732;DHT22;10527;52.124;5.196;2023-07-30T14:22:22;22.50;99.90
20732;DHT22;10527;52.124;5.196;2023-07-30T14:24:49;22.70;99.90
20732;DHT22;10527;52.124;5.196;2023-07-30T14:27:15;22.70;99.90
20732;DHT22;10527;52.124;5.196;2023-07-30T14:29:42;22.50;99.90
20732;DHT22;10527;52.124;5.196;2023-07-30T14:32:09;22.00;99.90
20732;DHT22;10527;52.124;5.196;2023-07-30T14:34:36;21.70;99.90
20732;DHT22;10527;52.124;5.196;2023-07-30T14:37:03;21.80;99.90
20732;DHT22;10527;52.124;5.196;2023-07-30T14:39:30;21.90;99.90
20732;DHT22;10527;52.124;5.196;2023-07-30T14:41:57;22.10;99.90
20732;DHT22;10527;52.124;5.196;2023-07-30T14:44:23;22.30;99.90
20732;DHT22;10527;52.124;5.196;2023-07-30T14:46:51;22.40;99.90
20732;DHT22;10527;52.124;5.196;2023-07-30T14:49:18;22.60;99.90
20732;DHT22;10527;52.124;5.196;2023-07-30T14:51:46;22.30;99.90
20732;DHT22;10527;52.124;5.196;2023-07-30T14:54:13;22.10;99.90
20732;DHT22;10527;52.124;5.196;2023-07-30T14:56:40;22.00;99.90
20732;DHT22;10527;52.124;5.196;2023-07-30T14:59:07;21.80;99.90
20732;DHT22;10527;52.124;5.196;2023-07-30T15:01:34;21.60;99.90
20732;DHT22;10527;52.124;5.196;2023-07-30T15:04:01;21.50;99.90
20732;DHT22;10527;52.124;5.196;2023-07-30T15:06:28;21.50;99.90
20732;DHT22;10527;52.124;5.196;2023-07-30T15:08:58;21.60;99.90
20732;DHT22;10527;52.124;5.196;2023-07-30T15:11:25;21.50;99.90
20732;DHT22;10527;52.124;5.196;2023-07-30T15:13:53;21.50;99.90
20732;DHT22;10527;52.124;5.196;2023-07-30T15:16:20;21.50;99.90
20732;DHT22;10527;52.124;5.196;2023-07-30T15:18:47;21.30;99.90
20732;DHT22;10527;52.124;5.196;2023-07-30T15:21:14;21.20;99.90
20732;DHT22;10527;52.124;5.196;2023-07-30T15:23:43;21.20;99.90
20732;DHT22;10527;52.124;5.196;2023-07-30T15:26:12;21.20;99.90
20732;DHT22;10527;52.124;5.196;2023-07-30T15:28:40;21.10;99.90
20732;DHT22;10527;52.124;5.196;2023-07-30T15:31:07;21.10;99.90
20732;DHT22;10527;52.124;5.196;2023-07-30T15:33:34;21.20;99.90
20732;DHT22;10527;52.124;5.196;2023-07-30T15:36:02;21.20;99.90
20732;DHT22;10527;52.124;5.196;2023-07-30T15:38:29;21.30;99.90
20732;DHT22;10527;52.124;5.196;2023-07-30T15:40:57;21.20;99.90
20732;DHT22;10527;52.124;5.196;2023-07-30T15:43:25;21.20;99.90
20732;DHT22;10527;52.124;5.196;2023-07-30T15:45:52;21.10;99.90